Time;durP1;ratioP1;P1;durP2;ratioP2;P2;SDS_P1;SDS_P2;PMS_P1;PMS_P2;Temp;Humidity;BMP_temperature;BMP_pressure;BME280_temperature;BME280_humidity;BME280_pressure;Samples;Min_cycle;Max_cycle;Signal;HPM_P1;HPM_P2
2023/07/15 00:00:53;;;;;;;7.05;3.80;;;19.30;99.90;;;;;;5053513;28;20184;-29
2023/07/15 00:03:20;;;;;;;5.53;4.00;;;19.20;99.90;;;;;;5034211;28;20228;-28
2023/07/15 00:05:47;;;;;;;4.88;3.85;;;19.20;99.90;;;;;;5037317;28;20190;-30
2023/07/15 00:08:14;;;;;;;4.18;3.78;;;19.10;99.90;;;;;;5056827;28;20211;-29
2023/07/15 00:10:44;;;;;;;6.97;3.95;;;19.10;99.90;;;;;;5039968;28;20174;-29
2023/07/15 00:13:15;;;;;;;5.53;3.58;;;19.10;99.90;;;;;;5035333;28;20185;-28
2023/07/15 00:15:43;;;;;;;8.50;3.63;;;19.20;99.90;;;;;;5036073;28;20236;-30
2023/07/15 00:18:14;;;;;;;4.30;3.72;;;19.20;99.90;;;;;;5060204;28;20232;-29
2023/07/15 00:20:44;;;;;;;7.82;4.00;;;19.20;99.90;;;;;;5051742;28;20182;-28
2023/07/15 00:23:23;;;;;;;6.20;3.80;;;19.30;99.90;;;;;;5047311;28;20196;-28
2023/07/15 00:25:50;;;;;;;5.55;3.90;;;19.30;99.90;;;;;;5069457;28;20194;-28
2023/07/15 00:28:20;;;;;;;4.15;3.72;;;19.30;99.90;;;;;;5059191;28;20225;-29
2023/07/15 00:30:50;;;;;;;4.20;3.63;;;19.30;99.90;;;;;;5052068;28;20189;-27
2023/07/15 00:33:17;;;;;;;4.13;3.72;;;19.30;99.90;;;;;;5054184;28;20189;-29
2023/07/15 00:35:43;;;;;;;4.60;3.40;;;19.20;99.90;;;;;;5035215;28;20261;-28
2023/07/15 00:38:12;;;;;;;5.57;3.90;;;19.20;99.90;;;;;;5038023;28;20209;-30
2023/07/15 00:40:47;;;;;;;4.82;3.88;;;19.20;99.90;;;;;;5050630;28;20193;-29
2023/07/15 00:43:50;;;;;;;4.93;4.00;;;19.20;99.90;;;;;;5047357;28;20218;-28
2023/07/15 00:46:31;;;;;;;5.10;4.30;;;19.10;99.90;;;;;;5055860;28;20334;-29
2023/07/15 00:49:10;;;;;;;4.53;4.13;;;18.90;99.90;;;;;;5057788;28;20212;-29
2023/07/15 00:51:42;;;;;;;7.32;4.20;;;18.90;99.90;;;;;;5043084;28;20181;-29
2023/07/15 00:54:09;;;;;;;6.28;4.22;;;18.80;99.90;;;;;;5030563;28;20185;-29
2023/07/15 00:56:37;;;;;;;5.75;4.57;;;18.80;99.90;;;;;;5054155;28;20173;-29
2023/07/15 00:59:04;;;;;;;5.63;4.10;;;18.70;99.90;;;;;;5045766;28;20204;-29
2023/07/15 01:01:31;;;;;;;5.18;4.13;;;18.70;99.90;;;;;;5056409;28;20178;-30
2023/07/15 01:03:57;;;;;;;4.88;4.10;;;18.70;99.90;;;;;;5051124;28;20288;-30
2023/07/15 01:06:23;;;;;;;7.03;4.55;;;18.60;99.90;;;;;;5050878;28;20209;-28
2023/07/15 01:08:49;;;;;;;5.50;3.58;;;18.60;99.90;;;;;;5055236;28;20217;-28
2023/07/15 01:11:15;;;;;;;4.32;3.80;;;18.60;99.90;;;;;;5036163;28;20184;-30
2023/07/15 01:13:41;;;;;;;6.78;3.92;;;18.60;99.90;;;;;;5048679;28;20178;-30
2023/07/15 01:16:07;;;;;;;4.40;4.00;;;18.60;99.90;;;;;;5036625;28;20196;-29
2023/07/15 01:18:33;;;;;;;5.50;3.80;;;18.60;99.90;;;;;;5036504;28;20244;-32
2023/07/15 01:21:00;;;;;;;3.95;3.60;;;18.60;99.90;;;;;;5048577;28;20276;-29
2023/07/15 01:23:29;;;;;;;5.60;3.97;;;18.60;99.90;;;;;;5030717;28;20190;-29
2023/07/15 01:25:55;;;;;;;4.30;3.90;;;18.50;99.90;;;;;;5056005;28;20335;-30
2023/07/15 01:28:21;;;;;;;7.00;3.90;;;18.60;99.90;;;;;;5030555;28;20256;-29
2023/07/15 01:30:48;;;;;;;4.22;3.67;;;18.60;99.90;;;;;;5048138;28;20185;-29
2023/07/15 01:33:18;;;;;;;7.35;4.53;;;18.50;99.90;;;;;;5033153;28;20178;-28
2023/07/15 01:35:49;;;;;;;6.18;3.50;;;18.60;99.90;;;;;;5050299;28;20272;-29
2023/07/15 01:38:16;;;;;;;6.35;4.07;;;18.50;99.90;;;;;;5062953;28;20208;-29
2023/07/15 01:40:42;;;;;;;3.65;3.33;;;18.60;99.90;;;;;;5052087;28;20184;-30
2023/07/15 01:43:09;;;;;;;7.30;3.80;;;18.60;99.90;;;;;;5052173;28;20250;-29
2023/07/15 01:45:36;;;;;;;4.45;3.95;;;18.60;99.90;;;;;;5058680;28;20178;-30
2023/07/15 01:48:04;;;;;;;4.03;3.55;;;18.60;99.90;;;;;;5061033;28;20271;-29
2023/07/15 01:50:30;;;;;;;6.70;3.65;;;18.60;99.90;;;;;;5057903;28;20185;-29
2023/07/15 01:52:57;;;;;;;5.47;3.55;;;18.60;99.90;;;;;;5045947;28;20186;-29
2023/07/15 01:55:23;;;;;;;4.10;3.60;;;18.60;99.90;;;;;;5034891;28;20171;-29
2023/07/15 01:57:49;;;;;;;5.47;3.67;;;18.70;99.90;;;;;;5040819;28;20195;-29
2023/07/15 02:00:16;;;;;;;8.07;3.63;;;18.70;99.90;;;;;;5051691;28;20188;-28
2023/07/15 02:02:43;;;;;;;5.60;3.92;;;18.70;99.90;;;;;;5050082;28;20268;-29
2023/07/15 02:05:09;;;;;;;6.20;3.95;;;18.70;99.90;;;;;;5061853;28;20193;-30
2023/07/15 02:07:35;;;;;;;5.57;3.80;;;18.60;99.90;;;;;;5044023;28;20209;-29
2023/07/15 02:10:01;;;;;;;6.88;3.67;;;18.60;99.90;;;;;;5041101;28;20177;-31
2023/07/15 02:12:28;;;;;;;4.18;3.78;;;18.60;99.90;;;;;;5038365;28;20191;-29
2023/07/15 02:14:54;;;;;;;4.07;3.67;;;18.60;99.90;;;;;;5052192;28;20185;-27
2023/07/15 02:17:23;;;;;;;4.25;3.60;;;18.60;99.90;;;;;;5038444;28;20186;-31
2023/07/15 02:19:50;;;;;;;4.90;3.50;;;18.50;99.90;;;;;;5049324;28;20204;-28
2023/07/15 02:22:16;;;;;;;4.18;3.50;;;18.50;99.90;;;;;;5049924;28;20181;-29
2023/07/15 02:24:43;;;;;;;4.82;3.70;;;18.50;99.90;;;;;;5048468;28;20181;-28
2023/07/15 02:27:09;;;;;;;4.05;3.38;;;18.50;99.90;;;;;;5040216;28;20202;-29
2023/07/15 02:29:36;;;;;;;6.35;3.92;;;18.40;99.90;;;;;;5058132;28;20196;-29
2023/07/15 02:32:03;;;;;;;3.45;3.15;;;18.40;99.90;;;;;;5058884;28;20188;-29
2023/07/15 02:34:29;;;;;;;6.25;4.13;;;18.30;99.90;;;;;;5035210;28;20194;-29
2023/07/15 02:36:56;;;;;;;5.40;3.90;;;18.30;99.90;;;;;;5054433;28;20193;-30
2023/07/15 02:39:23;;;;;;;3.55;3.25;;;18.20;99.90;;;;;;5038013;28;20198;-30
2023/07/15 02:41:50;;;;;;;4.53;3.45;;;18.20;99.90;;;;;;5046750;28;20206;-29
2023/07/15 02:44:16;;;;;;;5.28;3.67;;;18.10;99.90;;;;;;5040423;28;20178;-29
2023/07/15 02:46:41;;;;;;;4.88;4.20;;;18.10;99.90;;;;;;5036840;28;20197;-30
2023/07/15 02:49:08;;;;;;;5.85;4.15;;;18.20;99.90;;;;;;5057082;28;20209;-30
2023/07/15 02:51:36;;;;;;;6.07;4.10;;;18.20;99.90;;;;;;5041185;28;20181;-29
2023/07/15 02:54:02;;;;;;;3.92;3.47;;;18.20;99.90;;;;;;5033020;28;20185;-29
2023/07/15 02:56:28;;;;;;;6.00;4.07;;;18.20;99.90;;;;;;5041101;28;20177;-30
2023/07/15 02:58:54;;;;;;;4.63;3.85;;;18.20;99.90;;;;;;5041011;28;20205;-31
2023/07/15 03:01:21;;;;;;;4.60;3.90;;;18.20;99.90;;;;;;5032685;28;20189;-30
2023/07/15 03:03:47;;;;;;;6.63;4.15;;;18.20;99.90;;;;;;5049433;28;20186;-29
2023/07/15 03:06:13;;;;;;;4.22;3.83;;;18.20;99.90;;;;;;5049386;28;20186;-29
2023/07/15 03:08:39;;;;;;;4.30;3.90;;;18.20;99.90;;;;;;5056506;28;20209;-29
2023/07/15 03:11:08;;;;;;;4.25;3.30;;;18.20;99.90;;;;;;5043232;28;20178;-29
2023/07/15 03:13:34;;;;;;;4.82;3.92;;;18.20;99.90;;;;;;5044239;28;20182;-29
2023/07/15 03:16:00;;;;;;;3.85;3.50;;;18.20;99.90;;;;;;5035883;28;20182;-28
2023/07/15 03:18:28;;;;;;;8.73;3.90;;;18.20;99.90;;;;;;5053603;28;20265;-30
2023/07/15 03:20:54;;;;;;;5.28;3.58;;;18.10;99.90;;;;;;5036651;28;20235;-30
2023/07/15 03:23:20;;;;;;;4.95;3.83;;;18.10;99.90;;;;;;5040030;28;20174;-29
2023/07/15 03:25:47;;;;;;;5.45;3.97;;;18.10;99.90;;;;;;5053765;28;20192;-29
2023/07/15 03:28:13;;;;;;;4.57;4.00;;;18.10;99.90;;;;;;5057602;28;20205;-28
2023/07/15 03:30:43;;;;;;;4.30;3.80;;;18.00;99.90;;;;;;5052782;28;20174;-29
2023/07/15 03:33:09;;;;;;;5.28;3.92;;;18.00;99.90;;;;;;5036672;28;20189;-28
2023/07/15 03:35:36;;;;;;;4.82;4.30;;;17.90;99.90;;;;;;5042878;28;20177;-30
2023/07/15 03:38:02;;;;;;;4.95;3.70;;;17.90;99.90;;;;;;5064618;28;20218;-29
2023/07/15 03:40:32;;;;;;;5.65;4.10;;;17.90;99.90;;;;;;5048745;28;20180;-29
2023/07/15 03:42:58;;;;;;;5.05;4.20;;;17.80;99.90;;;;;;5030620;28;20178;-29
2023/07/15 03:45:24;;;;;;;5.18;3.70;;;17.80;99.90;;;;;;5061367;28;20186;-27
2023/07/15 03:47:50;;;;;;;4.30;3.67;;;17.80;99.90;;;;;;5032830;28;20241;-27
2023/07/15 03:50:16;;;;;;;4.60;4.00;;;17.80;99.90;;;;;;5036599;28;20224;-28
2023/07/15 03:52:42;;;;;;;3.70;3.35;;;17.70;99.90;;;;;;5059638;28;20184;-29
2023/07/15 03:55:08;;;;;;;5.68;4.00;;;17.70;99.90;;;;;;5042893;28;20189;-29
2023/07/15 03:57:34;;;;;;;4.95;4.10;;;17.50;99.90;;;;;;5052362;28;20190;-29
2023/07/15 04:00:00;;;;;;;4.85;3.53;;;17.40;99.90;;;;;;5052534;28;20189;-29
2023/07/15 04:02:27;;;;;;;4.97;3.80;;;17.40;99.90;;;;;;5035692;28;20189;-29
2023/07/15 04:04:53;;;;;;;5.88;3.80;;;17.50;99.90;;;;;;5060612;28;20219;-30
2023/07/15 04:07:19;;;;;;;3.90;3.50;;;17.50;99.90;;;;;;5035736;28;20221;-30
2023/07/15 04:09:45;;;;;;;4.93;3.85;;;17.50;99.90;;;;;;5058988;28;20225;-29
2023/07/15 04:12:11;;;;;;;5.13;3.63;;;17.50;99.90;;;;;;5034524;28;20193;-29
2023/07/15 04:14:37;;;;;;;4.70;4.20;;;17.40;99.90;;;;;;5051878;28;20182;-28
2023/07/15 04:17:03;;;;;;;4.07;3.67;;;17.40;99.90;;;;;;5060591;28;20185;-29
2023/07/15 04:19:29;;;;;;;6.00;3.75;;;17.40;99.90;;;;;;5060788;28;20272;-29
2023/07/15 04:21:55;;;;;;;5.63;4.10;;;17.40;99.90;;;;;;5043306;28;20253;-29
2023/07/15 04:24:21;;;;;;;6.03;3.83;;;17.40;99.90;;;;;;5035464;28;20178;-30
2023/07/15 04:26:47;;;;;;;6.22;4.00;;;17.60;99.90;;;;;;5059349;28;20242;-29
2023/07/15 04:29:12;;;;;;;5.28;4.05;;;17.60;99.90;;;;;;5035834;28;20251;-29
2023/07/15 04:31:39;;;;;;;6.60;4.00;;;17.70;99.90;;;;;;5043504;28;20192;-29
2023/07/15 04:34:04;;;;;;;5.72;4.10;;;17.80;99.90;;;;;;5051019;28;20175;-29
2023/07/15 04:36:30;;;;;;;8.57;4.20;;;17.80;99.90;;;;;;5051822;28;20180;-29
2023/07/15 04:38:56;;;;;;;5.07;4.40;;;17.90;99.90;;;;;;5060168;28;20208;-30
2023/07/15 04:41:22;;;;;;;4.15;3.75;;;17.90;99.90;;;;;;5068973;28;20180;-28
2023/07/15 04:43:48;;;;;;;4.20;3.80;;;17.90;99.90;;;;;;5068797;28;20229;-28
2023/07/15 04:46:14;;;;;;;6.38;4.03;;;17.90;99.90;;;;;;5036948;28;20190;-29
2023/07/15 04:48:40;;;;;;;4.47;4.07;;;17.90;99.90;;;;;;5058039;28;20292;-30
2023/07/15 04:51:06;;;;;;;7.25;4.10;;;18.00;99.90;;;;;;5055431;28;20193;-29
2023/07/15 04:53:32;;;;;;;5.15;4.28;;;18.00;99.90;;;;;;5052413;28;20176;-30
2023/07/15 04:55:58;;;;;;;5.80;4.35;;;18.10;99.90;;;;;;5037385;28;20177;-28
2023/07/15 04:58:24;;;;;;;4.72;4.30;;;18.10;99.90;;;;;;5043510;28;20198;-31
2023/07/15 05:00:50;;;;;;;4.55;4.00;;;18.20;99.90;;;;;;5039669;28;20191;-28
2023/07/15 05:03:17;;;;;;;4.22;3.83;;;18.30;99.90;;;;;;5068238;28;20197;-28
2023/07/15 05:05:44;;;;;;;4.40;3.97;;;18.30;99.90;;;;;;5044172;28;20177;-28
2023/07/15 05:08:15;;;;;;;4.30;3.90;;;18.30;99.90;;;;;;5046819;28;20216;-29
2023/07/15 05:10:42;;;;;;;5.03;4.53;;;18.40;99.90;;;;;;5040581;28;20182;-29
2023/07/15 05:13:08;;;;;;;4.78;4.35;;;18.40;99.90;;;;;;5043131;28;20417;-30
2023/07/15 05:15:38;;;;;;;8.18;4.18;;;18.40;99.90;;;;;;5039271;28;20221;-29
2023/07/15 05:18:06;;;;;;;4.57;4.18;;;18.40;99.90;;;;;;5053138;28;20205;-29
2023/07/15 05:20:35;;;;;;;4.88;4.07;;;18.50;99.90;;;;;;5035593;28;20184;-30
2023/07/15 05:23:02;;;;;;;6.28;5.32;;;18.60;99.90;;;;;;5050436;28;20199;-31
2023/07/15 05:25:29;;;;;;;5.53;5.03;;;18.70;99.90;;;;;;5034442;28;20185;-29
2023/07/15 05:27:56;;;;;;;6.03;4.93;;;18.90;99.90;;;;;;5058233;28;20292;-29
2023/07/15 05:30:22;;;;;;;5.40;4.88;;;19.00;99.90;;;;;;5039458;28;20178;-29
2023/07/15 05:32:48;;;;;;;5.75;4.78;;;19.10;99.90;;;;;;5034385;28;20186;-29
2023/07/15 05:35:14;;;;;;;5.13;4.60;;;19.20;99.90;;;;;;5060004;28;20177;-28
2023/07/15 05:37:41;;;;;;;9.93;4.95;;;19.30;99.90;;;;;;5044922;28;20189;-29
2023/07/15 05:40:11;;;;;;;4.82;4.20;;;19.40;99.90;;;;;;5055306;28;20189;-28
2023/07/15 05:42:41;;;;;;;4.07;3.63;;;19.50;99.90;;;;;;5033450;28;20182;-28
2023/07/15 05:45:08;;;;;;;4.43;4.03;;;19.70;99.90;;;;;;5052740;28;20181;-30
2023/07/15 05:47:34;;;;;;;4.60;4.20;;;19.90;99.90;;;;;;5033170;28;20285;-29
2023/07/15 05:50:06;;;;;;;7.13;4.32;;;20.10;99.90;;;;;;5061599;28;20191;-29
2023/07/15 05:52:32;;;;;;;4.65;3.90;;;20.30;99.90;;;;;;5040260;28;20162;-29
2023/07/15 05:54:58;;;;;;;4.20;3.80;;;20.40;99.90;;;;;;5056714;28;20205;-29
2023/07/15 05:57:23;;;;;;;4.90;3.85;;;20.60;99.90;;;;;;5057515;28;20177;-31
2023/07/15 05:59:49;;;;;;;4.30;3.90;;;20.70;99.90;;;;;;5040779;28;20190;-31
2023/07/15 06:02:16;;;;;;;6.32;4.35;;;20.90;99.90;;;;;;5039356;28;20188;-28
2023/07/15 06:04:42;;;;;;;6.20;3.90;;;21.00;99.90;;;;;;5036406;28;20193;-30
2023/07/15 06:07:08;;;;;;;4.78;4.22;;;21.10;99.90;;;;;;5055583;28;20186;-30
2023/07/15 06:09:33;;;;;;;5.88;4.20;;;21.20;99.90;;;;;;5038631;28;20213;-29
2023/07/15 06:11:59;;;;;;;6.55;3.80;;;21.20;99.90;;;;;;5058889;28;20257;-29
2023/07/15 06:14:25;;;;;;;4.07;3.78;;;21.30;99.90;;;;;;5054328;28;20272;-30
2023/07/15 06:16:51;;;;;;;5.13;4.18;;;21.40;99.90;;;;;;5044501;28;20178;-30
2023/07/15 06:19:17;;;;;;;6.45;3.88;;;21.50;99.90;;;;;;5052107;28;20205;-30
2023/07/15 06:21:43;;;;;;;4.55;3.78;;;21.60;99.90;;;;;;5054101;28;20192;-31
2023/07/15 06:24:09;;;;;;;4.53;3.80;;;21.80;99.90;;;;;;5040998;28;20181;-30
2023/07/15 06:26:35;;;;;;;4.55;3.70;;;22.00;99.90;;;;;;5053759;28;20178;-30
2023/07/15 06:29:01;;;;;;;4.10;3.70;;;22.20;99.90;;;;;;5049574;28;20210;-33
2023/07/15 06:31:27;;;;;;;5.93;3.40;;;22.40;99.90;;;;;;5053401;28;20209;-31
2023/07/15 06:33:53;;;;;;;4.25;3.85;;;22.60;99.90;;;;;;5069990;28;20209;-30
2023/07/15 06:36:19;;;;;;;4.70;3.85;;;22.80;99.90;;;;;;5045509;28;20282;-31
2023/07/15 06:38:46;;;;;;;4.75;3.67;;;22.90;99.90;;;;;;5045017;28;20290;-30
2023/07/15 06:41:11;;;;;;;4.60;3.20;;;23.10;99.90;;;;;;5047575;28;20225;-31
2023/07/15 06:43:37;;;;;;;4.53;3.83;;;23.30;99.90;;;;;;5046327;28;20712;-31
2023/07/15 06:46:03;;;;;;;4.38;3.13;;;23.50;99.90;;;;;;5046869;28;20205;-31
2023/07/15 06:48:29;;;;;;;4.53;3.20;;;23.80;99.90;;;;;;5032598;28;20217;-31
2023/07/15 06:50:55;;;;;;;3.58;3.00;;;24.00;99.90;;;;;;5048205;28;20178;-31
2023/07/15 06:53:21;;;;;;;5.00;3.30;;;24.20;99.90;;;;;;5049643;28;20182;-31
2023/07/15 06:55:47;;;;;;;3.67;3.30;;;24.20;99.90;;;;;;5047398;28;20260;-30
2023/07/15 06:58:13;;;;;;;5.90;3.45;;;24.40;99.90;;;;;;5035349;28;20198;-31
2023/07/15 07:00:39;;;;;;;3.97;3.15;;;24.50;99.90;;;;;;5044262;28;20192;-30
2023/07/15 07:03:05;;;;;;;3.35;3.05;;;24.70;99.90;;;;;;5053225;28;20209;-30
2023/07/15 07:05:30;;;;;;;3.95;3.40;;;24.80;99.90;;;;;;5041371;28;20181;-32
2023/07/15 07:07:56;;;;;;;3.30;3.00;;;25.00;99.90;;;;;;5053692;28;20312;-31
2023/07/15 07:10:22;;;;;;;4.15;3.30;;;25.20;99.90;;;;;;5051567;28;20231;-31
2023/07/15 07:12:48;;;;;;;4.50;3.15;;;25.20;99.90;;;;;;5052558;28;20185;-31
2023/07/15 07:15:14;;;;;;;4.18;3.00;;;25.40;99.90;;;;;;5055432;28;20247;-31
2023/07/15 07:17:40;;;;;;;3.92;3.53;;;25.50;99.90;;;;;;5038831;28;20270;-31
2023/07/15 07:20:07;;;;;;;3.72;3.42;;;25.70;99.90;;;;;;5051335;28;20178;-31
2023/07/15 07:22:33;;;;;;;3.85;3.03;;;25.80;99.90;;;;;;5039273;28;20217;-31
2023/07/15 07:25:00;;;;;;;3.72;3.25;;;26.00;99.90;;;;;;5063885;28;20216;-31
2023/07/15 07:27:25;;;;;;;3.60;3.30;;;26.10;99.90;;;;;;5056298;28;20205;-31
2023/07/15 07:29:52;;;;;;;5.82;3.30;;;26.30;99.90;;;;;;5057453;28;20181;-31
2023/07/15 07:32:18;;;;;;;3.50;3.17;;;26.40;99.90;;;;;;5034451;28;20183;-30
2023/07/15 07:34:45;;;;;;;4.43;3.38;;;26.60;99.90;;;;;;5051894;28;20186;-31
2023/07/15 07:37:11;;;;;;;3.92;2.97;;;26.70;99.90;;;;;;5052476;28;20205;-31
2023/07/15 07:39:36;;;;;;;4.22;3.05;;;26.90;99.90;;;;;;5038682;28;20190;-32
2023/07/15 07:42:02;;;;;;;5.28;3.13;;;27.00;99.90;;;;;;5039633;28;20174;-31
2023/07/15 07:44:29;;;;;;;3.00;2.67;;;27.20;99.90;;;;;;5038157;28;20178;-30
2023/07/15 07:46:55;;;;;;;2.95;2.65;;;27.40;99.90;;;;;;5041268;28;20185;-31
2023/07/15 07:49:21;;;;;;;3.25;2.90;;;27.60;99.90;;;;;;5063318;28;20211;-31
2023/07/15 07:51:46;;;;;;;2.97;2.78;;;27.80;99.90;;;;;;5055311;28;20178;-31
2023/07/15 07:54:12;;;;;;;3.25;2.80;;;28.00;99.90;;;;;;5040649;28;20237;-31
2023/07/15 07:56:38;;;;;;;3.30;3.00;;;28.10;99.90;;;;;;5053415;28;20189;-30
2023/07/15 07:59:04;;;;;;;3.55;3.25;;;28.20;99.90;;;;;;5039404;28;20201;-32
2023/07/15 08:01:31;;;;;;;3.13;2.92;;;28.30;99.90;;;;;;5055384;28;20177;-31
2023/07/15 08:03:58;;;;;;;5.22;2.90;;;28.50;99.90;;;;;;5050656;28;20204;-31
2023/07/15 08:06:25;;;;;;;3.45;2.92;;;28.60;99.90;;;;;;5050619;28;20186;-31
2023/07/15 08:08:51;;;;;;;3.70;3.00;;;28.70;99.90;;;;;;5052949;28;20230;-31
2023/07/15 08:11:17;;;;;;;5.53;2.70;;;28.80;99.90;;;;;;5051411;28;20224;-31
2023/07/15 08:13:43;;;;;;;2.80;2.40;;;28.90;99.90;;;;;;5051644;28;20228;-32
2023/07/15 08:16:32;;;;;;;3.13;2.80;;;29.00;99.90;;;;;;5033904;28;20384;-32
2023/07/15 08:18:59;;;;;;;2.92;2.72;;;29.30;99.90;;;;;;5049112;28;20202;-31
2023/07/15 08:21:27;;;;;;;3.40;3.10;;;29.40;99.90;;;;;;5047320;28;20197;-31
2023/07/15 08:23:54;;;;;;;3.05;2.75;;;29.60;99.90;;;;;;5048435;28;20182;-31
2023/07/15 08:26:22;;;;;;;2.78;2.50;;;29.90;99.90;;;;;;5048992;28;20263;-32
2023/07/15 08:28:50;;;;;;;4.40;2.90;;;30.10;99.90;;;;;;5045817;28;20218;-32
2023/07/15 08:31:16;;;;;;;3.30;2.83;;;30.40;99.90;;;;;;5033689;28;20214;-31
2023/07/15 08:33:43;;;;;;;4.57;3.13;;;30.50;99.90;;;;;;5030807;28;20235;-32
2023/07/15 08:36:13;;;;;;;3.42;3.13;;;30.60;99.90;;;;;;5044943;28;20186;-32
2023/07/15 08:38:39;;;;;;;3.28;2.97;;;30.60;99.90;;;;;;5033531;28;20210;-32
2023/07/15 08:41:07;;;;;;;3.90;3.00;;;30.70;99.90;;;;;;5050075;28;20190;-30
2023/07/15 08:43:36;;;;;;;2.90;2.70;;;30.90;99.90;;;;;;5042451;28;20190;-31
2023/07/15 08:46:13;;;;;;;3.35;3.05;;;31.00;99.90;;;;;;5047099;28;20236;-31
2023/07/15 08:48:40;;;;;;;4.25;2.83;;;31.30;99.90;;;;;;5059694;28;20300;-32
2023/07/15 08:51:07;;;;;;;3.50;2.88;;;31.50;99.90;;;;;;5047468;28;20633;-31
2023/07/15 08:53:36;;;;;;;3.15;2.85;;;31.70;99.90;;;;;;5036188;28;20192;-29
2023/07/15 08:56:04;;;;;;;4.40;2.83;;;31.90;99.90;;;;;;5030101;28;20209;-29
2023/07/15 08:58:30;;;;;;;3.65;3.17;;;32.00;99.90;;;;;;5050222;28;20204;-29
2023/07/15 09:01:00;;;;;;;3.83;2.92;;;32.10;99.90;;;;;;5034498;28;20197;-31
2023/07/15 09:03:28;;;;;;;3.53;2.90;;;32.20;99.90;;;;;;5049617;28;20174;-29
2023/07/15 09:05:55;;;;;;;2.92;2.63;;;32.40;99.90;;;;;;5038099;28;20185;-29
2023/07/15 09:08:44;;;;;;;2.58;2.33;;;32.60;99.90;;;;;;5052324;28;20213;-29
2023/07/15 09:11:12;;;;;;;2.90;2.70;;;32.60;99.90;;;;;;5061263;28;20281;-32
2023/07/15 09:13:40;;;;;;;3.15;2.70;;;32.60;99.90;;;;;;5036745;28;20242;-29
2023/07/15 09:16:07;;;;;;;3.55;2.60;;;32.70;99.90;;;;;;5033603;28;20212;-30
2023/07/15 09:18:43;;;;;;;3.20;2.72;;;32.90;99.90;;;;;;5046700;28;20201;-30
2023/07/15 09:21:12;;;;;;;2.50;2.30;;;33.00;99.90;;;;;;5059697;28;20197;-29
2023/07/15 09:23:40;;;;;;;3.80;2.47;;;33.10;99.90;;;;;;5043378;28;20272;-29
2023/07/15 09:26:08;;;;;;;3.45;2.60;;;33.30;99.90;;;;;;5047212;28;20189;-31
2023/07/15 09:28:38;;;;;;;4.35;2.65;;;33.30;98.20;;;;;;5067116;28;20208;-31
2023/07/15 09:31:04;;;;;;;3.28;2.25;;;33.30;99.10;;;;;;5062750;28;20186;-30
2023/07/15 09:33:39;;;;;;;2.92;2.40;;;33.40;95.70;;;;;;5032790;28;20295;-30
2023/07/15 09:36:06;;;;;;;2.70;2.50;;;33.30;95.10;;;;;;5029886;28;20192;-31
2023/07/15 09:38:36;;;;;;;2.83;2.10;;;33.20;95.50;;;;;;5067484;28;20197;-32
2023/07/15 09:41:04;;;;;;;2.40;2.20;;;33.30;95.90;;;;;;5051912;28;20223;-31
2023/07/15 09:43:48;;;;;;;2.50;2.30;;;33.50;95.30;;;;;;5043178;28;20186;-32
2023/07/15 09:46:16;;;;;;;2.83;2.50;;;33.50;94.20;;;;;;5049489;28;20240;-31
2023/07/15 09:48:50;;;;;;;2.72;2.53;;;33.50;93.50;;;;;;5051335;28;20202;-31
2023/07/15 09:51:18;;;;;;;2.75;2.15;;;33.50;93.30;;;;;;5033724;28;20174;-31
2023/07/15 09:53:53;;;;;;;2.45;2.25;;;33.70;93.90;;;;;;5053973;28;20180;-31
2023/07/15 09:56:37;;;;;;;2.42;2.22;;;33.80;93.70;;;;;;5047370;28;20173;-31
2023/07/15 09:59:26;;;;;;;2.45;2.17;;;33.70;92.60;;;;;;5051017;28;20205;-31
2023/07/15 10:01:55;;;;;;;2.88;2.55;;;33.70;92.60;;;;;;5037530;28;20205;-31
2023/07/15 10:04:33;;;;;;;3.85;2.40;;;33.50;92.50;;;;;;5047587;28;20275;-29
2023/07/15 10:07:03;;;;;;;4.55;2.45;;;33.50;92.60;;;;;;5047279;28;20192;-29
2023/07/15 10:09:35;;;;;;;4.38;2.50;;;33.60;93.10;;;;;;5056249;28;20305;-29
2023/07/15 10:12:02;;;;;;;2.25;2.00;;;33.80;92.90;;;;;;5034734;28;20198;-30
2023/07/15 10:14:31;;;;;;;4.95;2.53;;;34.10;92.00;;;;;;5039007;28;20190;-29
2023/07/15 10:17:17;;;;;;;2.78;2.47;;;34.10;91.70;;;;;;5052516;28;20189;-30
2023/07/15 10:19:51;;;;;;;2.63;2.30;;;34.20;91.80;;;;;;5054313;28;20200;-30
2023/07/15 10:22:21;;;;;;;2.47;2.15;;;34.20;91.30;;;;;;5041214;28;20280;-29
2023/07/15 10:24:56;;;;;;;2.75;2.17;;;34.30;90.80;;;;;;5034244;28;20335;-32
2023/07/15 10:27:29;;;;;;;2.60;2.40;;;34.30;90.50;;;;;;5063856;28;20201;-31
2023/07/15 10:30:28;;;;;;;2.50;2.30;;;34.60;90.80;;;;;;5033232;28;20184;-32
2023/07/15 10:33:00;;;;;;;2.75;2.40;;;34.60;88.90;;;;;;5031727;28;20178;-31
2023/07/15 10:35:28;;;;;;;3.90;2.47;;;34.60;90.30;;;;;;5072704;28;20201;-31
2023/07/15 10:37:56;;;;;;;2.45;2.22;;;34.80;90.00;;;;;;5040720;28;20213;-31
2023/07/15 10:40:48;;;;;;;2.90;2.58;;;34.80;89.80;;;;;;5049665;28;20188;-29
2023/07/15 10:43:22;;;;;;;4.53;2.53;;;35.10;90.70;;;;;;5040236;28;20177;-31
2023/07/15 10:45:54;;;;;;;2.28;2.10;;;35.30;90.20;;;;;;5044200;28;20173;-28
2023/07/15 10:48:22;;;;;;;2.55;2.35;;;35.40;89.00;;;;;;5045782;28;20308;-32
2023/07/15 10:50:52;;;;;;;2.60;2.40;;;35.60;88.20;;;;;;5065566;28;20239;-32
2023/07/15 10:53:25;;;;;;;2.45;2.25;;;35.90;89.20;;;;;;5042503;28;20182;-30
2023/07/15 10:55:58;;;;;;;3.22;2.40;;;36.10;88.10;;;;;;5033882;28;20239;-29
2023/07/15 10:58:25;;;;;;;2.60;2.22;;;36.20;88.00;;;;;;5059607;28;20202;-32
2023/07/15 11:00:51;;;;;;;3.58;2.40;;;36.00;85.20;;;;;;5041646;28;20232;-29
2023/07/15 11:03:19;;;;;;;3.15;2.38;;;36.00;84.80;;;;;;5042208;28;20186;-29
2023/07/15 11:05:46;;;;;;;2.70;2.50;;;36.10;84.10;;;;;;5056645;28;20208;-31
2023/07/15 11:08:12;;;;;;;2.95;2.25;;;36.40;85.40;;;;;;5054550;28;20213;-32
2023/07/15 11:10:38;;;;;;;3.40;2.30;;;36.40;85.70;;;;;;5042012;28;20178;-33
2023/07/15 11:13:14;;;;;;;2.50;2.10;;;36.40;83.20;;;;;;5035394;28;20192;-31
2023/07/15 11:15:41;;;;;;;3.58;2.50;;;36.00;83.80;;;;;;5057079;28;20217;-30
2023/07/15 11:18:17;;;;;;;2.97;2.38;;;36.20;81.50;;;;;;5035144;28;20205;-31
2023/07/15 11:20:45;;;;;;;2.63;2.00;;;36.20;80.90;;;;;;5053482;28;20181;-30
2023/07/15 11:23:11;;;;;;;2.83;2.30;;;36.30;80.70;;;;;;5052867;28;20645;-32
2023/07/15 11:25:38;;;;;;;4.30;2.30;;;36.40;82.40;;;;;;5051134;28;20178;-33
2023/07/15 11:28:05;;;;;;;3.10;2.22;;;36.40;80.50;;;;;;5034339;28;20297;-32
2023/07/15 11:30:35;;;;;;;2.72;2.40;;;36.50;78.00;;;;;;5033871;28;20239;-32
2023/07/15 11:33:02;;;;;;;3.92;2.45;;;36.70;79.90;;;;;;5034211;28;20181;-30
2023/07/15 11:35:36;;;;;;;2.50;2.30;;;36.60;77.70;;;;;;5038304;28;20269;-30
2023/07/15 11:38:30;;;;;;;2.42;2.20;;;36.90;80.60;;;;;;5047620;28;20226;-30
2023/07/15 11:40:59;;;;;;;2.40;1.90;;;36.80;78.70;;;;;;5041932;28;20196;-32
2023/07/15 11:43:28;;;;;;;2.38;2.17;;;36.80;77.80;;;;;;5034621;28;20193;-30
2023/07/15 11:45:55;;;;;;;2.40;2.20;;;36.60;77.50;;;;;;5040900;28;20193;-30
2023/07/15 11:48:24;;;;;;;2.05;1.95;;;36.50;78.10;;;;;;5041706;28;20202;-33
2023/07/15 11:50:50;;;;;;;2.42;2.22;;;36.30;76.60;;;;;;5052662;28;20178;-32
2023/07/15 11:53:29;;;;;;;2.53;2.30;;;36.10;77.80;;;;;;5038321;28;20178;-29
2023/07/15 11:55:58;;;;;;;4.80;2.13;;;35.90;77.50;;;;;;5052832;28;20170;-30
2023/07/15 11:58:38;;;;;;;3.97;2.35;;;35.50;79.10;;;;;;5055192;28;20190;-30
2023/07/15 12:01:06;;;;;;;2.30;2.10;;;35.50;80.50;;;;;;5051332;28;20182;-29
2023/07/15 12:03:32;;;;;;;2.42;2.22;;;35.70;80.70;;;;;;5037073;28;20182;-30
2023/07/15 12:05:59;;;;;;;2.38;2.05;;;36.00;77.80;;;;;;5055031;28;20221;-30
2023/07/15 12:08:25;;;;;;;1.98;1.88;;;36.30;79.30;;;;;;5040092;28;20287;-31
2023/07/15 12:10:54;;;;;;;2.78;2.10;;;36.70;79.50;;;;;;5050852;28;20211;-30
2023/07/15 12:13:20;;;;;;;3.10;2.22;;;37.10;78.30;;;;;;5037001;28;20189;-31
2023/07/15 12:15:46;;;;;;;1.95;1.85;;;37.50;76.70;;;;;;5031219;28;20193;-31
2023/07/15 12:18:12;;;;;;;3.72;2.10;;;37.70;75.50;;;;;;5035023;28;20205;-31
2023/07/15 12:20:38;;;;;;;2.10;1.90;;;37.80;72.10;;;;;;5034702;28;20178;-31
2023/07/15 12:23:04;;;;;;;1.77;1.65;;;37.90;73.50;;;;;;5052703;28;20256;-30
2023/07/15 12:25:31;;;;;;;2.20;2.00;;;37.70;70.70;;;;;;5048837;28;20182;-30
2023/07/15 12:28:02;;;;;;;2.38;2.17;;;37.60;70.90;;;;;;5036498;28;20205;-30
2023/07/15 12:30:32;;;;;;;3.33;1.98;;;37.80;70.50;;;;;;5048951;28;20191;-30
2023/07/15 12:32:59;;;;;;;3.55;2.15;;;37.80;72.70;;;;;;5047366;28;20194;-30
2023/07/15 12:35:30;;;;;;;2.30;2.10;;;37.70;72.50;;;;;;5049762;28;20185;-30
2023/07/15 12:37:57;;;;;;;3.88;2.10;;;37.60;71.20;;;;;;5062013;28;20206;-29
2023/07/15 12:40:23;;;;;;;2.55;2.20;;;37.90;73.70;;;;;;5050440;28;20218;-31
2023/07/15 12:42:49;;;;;;;2.30;2.10;;;38.00;72.40;;;;;;5034476;28;20186;-30
2023/07/15 12:45:15;;;;;;;2.30;2.10;;;38.00;71.00;;;;;;5053164;28;20181;-30
2023/07/15 12:47:41;;;;;;;2.08;1.98;;;38.00;71.80;;;;;;5049379;28;20204;-31
2023/07/15 12:50:07;;;;;;;3.28;2.17;;;38.10;71.10;;;;;;5049322;28;20177;-31
2023/07/15 12:52:33;;;;;;;2.05;1.85;;;38.00;70.70;;;;;;5043833;28;20193;-31